Time;durP1;ratioP1;P1;durP2;ratioP2;P2;SDS_P1;SDS_P2;PMS_P1;PMS_P2;Temp;Humidity;BMP_temperature;BMP_pressure;BME280_temperature;BME280_humidity;BME280_pressure;Samples;Min_cycle;Max_cycle;Signal;HPM_P1;HPM_P2
2022/05/18 00:01:08;;;;;;;3.12;0.90;;;;;;;15.38;44.56;100989.41;1733012;82;25650;-58
2022/05/18 00:03:41;;;;;;;2.55;0.85;;;;;;;15.33;45.01;100998.02;1732609;82;26994;-59
2022/05/18 00:06:10;;;;;;;4.45;0.88;;;;;;;15.29;44.74;100995.31;1731602;81;25988;-57
2022/05/18 00:08:36;;;;;;;4.80;0.68;;;;;;;15.24;45.09;100997.15;1732967;81;27703;-58
2022/05/18 00:11:08;;;;;;;2.12;0.95;;;;;;;15.24;45.19;101001.22;1733010;82;25511;-58
2022/05/18 00:13:36;;;;;;;2.37;0.90;;;;;;;15.24;45.28;101006.63;1732932;82;25753;-58
2022/05/18 00:16:05;;;;;;;5.20;1.00;;;;;;;15.24;43.65;101003.09;1732919;81;26216;-58
2022/05/18 00:18:31;;;;;;;7.70;1.37;;;;;;;15.24;42.10;101009.86;1733010;81;25834;-58
2022/05/18 00:21:00;;;;;;;3.52;0.90;;;;;;;15.17;41.75;101018.61;1733001;81;27468;-58
2022/05/18 00:23:28;;;;;;;3.67;0.82;;;;;;;15.16;42.64;101025.05;1732719;82;25744;-58
2022/05/18 00:25:55;;;;;;;5.53;1.02;;;;;;;15.17;43.82;101029.45;1732847;81;25736;-58
2022/05/18 00:28:22;;;;;;;3.42;0.98;;;;;;;15.16;43.15;101031.81;1732784;82;26102;-58
2022/05/18 00:30:51;;;;;;;7.35;0.98;;;;;;;15.10;42.83;101037.05;1732997;82;43142;-58
2022/05/18 00:33:19;;;;;;;4.95;1.00;;;;;;;15.07;44.43;101035.48;1733780;82;28145;-58
2022/05/18 00:35:47;;;;;;;9.90;1.45;;;;;;;15.05;43.80;101033.95;1741633;82;25771;-58
2022/05/18 00:38:13;;;;;;;7.28;0.70;;;;;;;14.96;43.97;101031.19;1738068;82;25474;-58
2022/05/18 00:40:45;;;;;;;3.83;0.90;;;;;;;14.93;44.18;101026.08;1737945;82;26102;-58
2022/05/18 00:43:32;;;;;;;9.33;1.57;;;;;;;14.93;44.83;101027.43;1729318;82;26204;-58
2022/05/18 00:46:03;;;;;;;2.42;1.00;;;;;;;14.94;45.38;101036.42;1729008;82;27447;-57
2022/05/18 00:48:31;;;;;;;3.12;0.70;;;;;;;14.89;46.37;101030.13;1733481;81;25773;-57
2022/05/18 00:51:02;;;;;;;7.08;1.17;;;;;;;14.85;46.01;101039.56;1733014;82;25760;-57
2022/05/18 00:53:34;;;;;;;6.67;1.00;;;;;;;14.85;45.63;101047.69;1733342;81;26160;-60
2022/05/18 00:56:05;;;;;;;12.05;1.52;;;;;;;14.75;45.30;101053.21;1732182;82;25581;-58
2022/05/18 00:58:43;;;;;;;4.10;1.10;;;;;;;14.68;43.75;101052.14;1733014;81;28264;-57
2022/05/18 01:01:10;;;;;;;10.43;1.30;;;;;;;14.64;40.54;101058.83;1733039;82;25792;-58
2022/05/18 01:03:42;;;;;;;7.15;1.70;;;;;;;14.60;39.80;101065.58;1733243;81;25804;-58
2022/05/18 01:06:34;;;;;;;17.45;2.35;;;;;;;14.58;38.45;101068.94;1738452;81;26154;-57
2022/05/18 01:09:28;;;;;;;14.25;2.30;;;;;;;14.55;34.90;101076.36;1741408;82;25728;-57
2022/05/18 01:11:55;;;;;;;8.80;2.22;;;;;;;14.48;34.53;101079.34;1741210;81;27486;-58
2022/05/18 01:14:27;;;;;;;12.93;2.33;;;;;;;14.41;33.01;101082.31;1740862;82;25516;-58
2022/05/18 01:16:54;;;;;;;19.23;2.35;;;;;;;14.32;32.73;101082.72;1740852;82;25804;-57
2022/05/18 01:19:47;;;;;;;10.93;2.37;;;;;;;14.24;32.54;101089.41;1740709;82;26085;-57
2022/05/18 01:22:53;;;;;;;18.25;2.92;;;;;;;14.15;32.55;101097.95;1740538;82;25773;-57
2022/05/18 01:25:37;;;;;;;9.80;2.37;;;;;;;14.12;32.53;101100.11;1740977;82;27323;-57
2022/05/18 01:28:06;;;;;;;;;;;;;;;14.03;32.74;101099.98;1743757;82;25475;-57
2022/05/18 01:30:36;;;;;;;18.62;2.83;;;;;;;13.96;31.99;101109.70;1741112;82;25518;-57
2022/05/18 01:33:08;;;;;;;16.00;2.77;;;;;;;13.89;32.40;101108.13;1734358;82;26092;-57
2022/05/18 01:35:41;;;;;;;9.25;3.35;;;;;;;13.84;31.76;101110.92;1730968;81;25678;-57
2022/05/18 01:38:12;;;;;;;;;;;;;;;13.74;32.41;101114.52;1733221;82;27398;-57
2022/05/18 01:41:10;;;;;;;11.22;1.87;;;;;;;13.67;31.77;101109.33;1730761;82;25798;-58
2022/05/18 01:43:43;;;;;;;9.30;1.75;;;;;;;13.61;31.79;101120.75;1733095;82;25779;-58
2022/05/18 01:46:13;;;;;;;15.05;1.80;;;;;;;13.53;31.75;101118.80;1731773;81;26508;-57
2022/05/18 01:48:46;;;;;;;14.10;1.75;;;;;;;13.45;31.39;101130.33;1730826;82;25784;-57
2022/05/18 01:51:39;;;;;;;12.80;1.80;;;;;;;13.38;31.59;101126.48;1730889;82;27434;-57
2022/05/18 01:54:07;;;;;;;7.93;1.50;;;;;;;13.35;31.37;101138.09;1730855;82;26053;-57
2022/05/18 01:56:33;;;;;;;10.40;1.40;;;;;;;13.30;30.83;101141.23;1730514;82;25712;-57
2022/05/18 01:59:00;;;;;;;12.63;1.37;;;;;;;13.24;31.36;101140.43;1730912;82;25926;-57
2022/05/18 02:01:27;;;;;;;8.75;1.52;;;;;;;13.18;30.10;101147.77;1730842;81;25681;-58
2022/05/18 02:03:54;;;;;;;7.92;1.37;;;;;;;13.11;30.56;101158.30;1730657;82;26699;-58
2022/05/18 02:06:21;;;;;;;8.18;1.22;;;;;;;13.08;30.59;101159.95;1734102;82;25927;-58
2022/05/18 02:08:50;;;;;;;9.93;1.70;;;;;;;13.05;30.79;101159.71;1738655;81;25681;-58
2022/05/18 02:11:20;;;;;;;12.13;1.60;;;;;;;13.03;30.47;101160.38;1738559;81;26317;-58
2022/05/18 02:13:48;;;;;;;7.67;1.55;;;;;;;12.99;30.58;101158.46;1738530;82;25933;-59
2022/05/18 02:16:15;;;;;;;5.50;1.25;;;;;;;12.95;30.77;101164.29;1738707;82;28293;-58
2022/05/18 02:18:41;;;;;;;15.13;1.50;;;;;;;12.93;31.28;101160.36;1738525;81;25760;-57
2022/05/18 02:21:11;;;;;;;7.92;1.57;;;;;;;12.91;31.60;101170.95;1738677;81;25657;-57
2022/05/18 02:23:41;;;;;;;17.10;1.57;;;;;;;12.89;31.81;101176.50;1738546;82;26192;-57
2022/05/18 02:26:11;;;;;;;5.12;1.15;;;;;;;12.90;32.03;101186.31;1738947;82;25790;-57
2022/05/18 02:28:39;;;;;;;14.28;1.85;;;;;;;12.90;32.28;101186.80;1735968;82;27494;-58
2022/05/18 02:31:06;;;;;;;6.45;1.30;;;;;;;12.90;31.89;101184.09;1738377;81;27186;-57
2022/05/18 02:33:33;;;;;;;7.67;1.50;;;;;;;12.86;31.71;101192.98;1773641;80;25792;-58
2022/05/18 02:36:00;;;;;;;10.48;1.30;;;;;;;12.79;31.89;101195.38;1780706;80;26204;-58
2022/05/18 02:38:27;;;;;;;14.03;1.30;;;;;;;12.75;32.04;101198.02;1780455;80;25752;-58
2022/05/18 02:40:59;;;;;;;10.35;1.87;;;;;;;12.67;32.18;101193.31;1780221;80;28182;-59
2022/05/18 02:43:27;;;;;;;7.97;1.80;;;;;;;12.65;32.27;101200.69;1727031;80;25906;-59
2022/05/18 02:46:18;;;;;;;5.10;1.20;;;;;;;12.63;32.54;101205.39;1734567;80;25808;-58
2022/05/18 02:48:47;;;;;;;12.33;1.27;;;;;;;12.60;32.63;101209.71;1780539;80;26326;-59
2022/05/18 02:51:16;;;;;;;14.40;1.50;;;;;;;12.54;32.78;101208.92;1780315;80;25877;-57
2022/05/18 02:53:43;;;;;;;10.15;1.45;;;;;;;12.48;32.93;101210.80;1780561;80;27498;-58
2022/05/18 02:56:15;;;;;;;5.55;0.98;;;;;;;12.39;32.68;101204.88;1780071;80;25621;-59
2022/05/18 02:58:47;;;;;;;2.85;1.20;;;;;;;12.29;32.52;101200.82;1780322;80;25672;-56
2022/05/18 03:01:21;;;;;;;2.60;1.07;;;;;;;12.20;32.49;101209.22;1780647;80;26185;-57
2022/05/18 03:03:49;;;;;;;11.78;1.35;;;;;;;12.10;32.95;101222.68;1780547;79;25512;-57
2022/05/18 03:06:19;;;;;;;3.77;1.00;;;;;;;12.04;32.97;101224.58;1780110;80;27477;-57
2022/05/18 03:08:47;;;;;;;7.10;1.55;;;;;;;11.99;33.09;101233.55;1748743;80;25883;-57
2022/05/18 03:11:15;;;;;;;11.03;1.40;;;;;;;11.94;33.40;101243.86;1741363;82;25666;-57
2022/05/18 03:13:42;;;;;;;8.43;1.10;;;;;;;11.89;33.77;101247.80;1708310;84;26756;-57
2022/05/18 03:16:10;;;;;;;10.05;1.20;;;;;;;11.88;34.16;101258.72;1708259;83;25647;-58
2022/05/18 03:18:37;;;;;;;5.75;1.30;;;;;;;11.88;34.21;101260.07;1695987;84;27669;-57
2022/05/18 03:23:50;;;;;;;11.68;1.70;;;;;;;11.83;34.41;101287.93;1708329;84;26360;-58
2022/05/18 03:26:20;;;;;;;4.55;1.15;;;;;;;11.84;34.74;101287.79;1707799;84;26179;-58
2022/05/18 03:28:50;;;;;;;9.13;1.20;;;;;;;11.81;34.70;101294.78;1708238;83;25892;-59
2022/05/18 03:31:18;;;;;;;13.53;1.65;;;;;;;11.79;34.64;101302.14;1707881;83;27302;-57
2022/05/18 03:33:45;;;;;;;7.80;1.45;;;;;;;11.77;34.74;101303.27;1701017;84;25688;-58
2022/05/18 03:36:15;;;;;;;6.15;1.25;;;;;;;11.72;35.05;101308.56;1687648;84;25733;-59
2022/05/18 03:38:44;;;;;;;9.93;1.37;;;;;;;11.67;35.43;101307.24;1733073;82;26332;-59
2022/05/18 03:41:12;;;;;;;13.20;1.50;;;;;;;11.64;35.34;101316.45;1732359;82;25657;-57
2022/05/18 03:43:40;;;;;;;6.40;1.00;;;;;;;11.57;35.63;101320.63;1714375;82;27612;-57
2022/05/18 03:46:07;;;;;;;6.92;1.42;;;;;;;11.50;35.76;101320.78;1719367;81;25791;-58
2022/05/18 03:48:34;;;;;;;10.40;1.62;;;;;;;11.34;35.85;101331.50;1733114;82;25813;-57
2022/05/18 03:51:04;;;;;;;13.35;2.05;;;;;;;11.31;35.99;101341.17;1733385;82;26040;-57
2022/05/18 03:53:31;;;;;;;13.25;1.60;;;;;;;11.28;36.63;101341.45;1732866;82;26304;-58
2022/05/18 03:55:58;;;;;;;14.53;2.37;;;;;;;11.27;36.97;101351.34;1732804;82;28298;-57
2022/05/18 03:58:25;;;;;;;5.35;1.35;;;;;;;11.23;37.04;101350.38;1732802;82;25486;-59
2022/05/18 04:00:55;;;;;;;3.87;1.40;;;;;;;11.20;37.57;101347.45;1733406;82;25749;-58
2022/05/18 04:03:26;;;;;;;10.58;1.60;;;;;;;11.14;37.46;101347.97;1732711;82;26251;-57
2022/05/18 04:05:54;;;;;;;5.67;1.57;;;;;;;11.11;37.82;101346.86;1733168;82;25820;-58
2022/05/18 04:08:21;;;;;;;4.30;1.60;;;;;;;11.09;38.10;101347.00;1734515;82;27462;-58
2022/05/18 04:10:48;;;;;;;2.87;1.00;;;;;;;11.03;37.66;101342.09;1735116;82;27268;-58
2022/05/18 04:13:21;;;;;;;9.38;1.82;;;;;;;11.03;37.99;101345.29;1735067;82;25837;-58
2022/05/18 04:15:48;;;;;;;14.43;3.85;;;;;;;10.99;38.04;101340.65;1735690;82;26837;-57
2022/05/18 04:18:15;;;;;;;4.75;1.70;;;;;;;10.98;38.20;101342.97;1735354;82;25755;-58
2022/05/18 04:20:42;;;;;;;10.23;1.50;;;;;;;10.99;38.04;101341.99;1735322;82;27471;-58
2022/05/18 04:23:12;;;;;;;8.98;1.15;;;;;;;10.97;38.45;101347.98;1735173;82;25950;-58
2022/05/18 04:25:41;;;;;;;12.88;1.22;;;;;;;11.01;38.59;101350.81;1735545;82;25717;-58
2022/05/18 04:28:13;;;;;;;10.65;1.05;;;;;;;10.96;38.17;101352.53;1735271;82;26103;-58
2022/05/18 04:30:39;;;;;;;12.50;1.37;;;;;;;10.95;38.67;101350.81;1735273;82;25527;-58
2022/05/18 04:33:06;;;;;;;5.30;1.70;;;;;;;10.96;38.75;101355.69;1735140;80;29654;-59
2022/05/18 04:35:33;;;;;;;5.80;1.30;;;;;;;10.98;39.35;101351.55;1735112;82;25732;-58
2022/05/18 04:38:00;;;;;;;14.00;1.60;;;;;;;11.03;38.81;101358.75;1735447;82;25708;-58
2022/05/18 04:40:27;;;;;;;4.55;1.30;;;;;;;11.09;38.72;101360.93;1735195;82;26911;-58
2022/05/18 04:42:54;;;;;;;14.85;1.77;;;;;;;11.09;39.20;101352.37;1741457;82;25741;-58
2022/05/18 04:45:23;;;;;;;9.60;1.37;;;;;;;11.12;39.05;101356.15;1743318;82;27482;-58
2022/05/18 04:47:50;;;;;;;7.20;1.00;;;;;;;11.15;38.80;101361.80;1774337;79;25867;-59
2022/05/18 04:50:20;;;;;;;20.55;2.35;;;;;;;11.14;38.76;101360.55;1775096;80;25698;-59
2022/05/18 04:52:48;;;;;;;11.10;1.20;;;;;;;11.16;38.58;101354.06;1774761;80;27099;-58
2022/05/18 04:55:15;;;;;;;14.95;1.52;;;;;;;11.18;37.81;101362.87;1775155;80;25770;-58
2022/05/18 04:57:43;;;;;;;30.55;2.12;;;;;;;11.19;38.02;101363.75;1778788;80;27686;-59
2022/05/18 05:00:13;;;;;;;10.53;1.40;;;;;;;11.23;38.13;101363.84;1774647;80;25731;-59
2022/05/18 05:02:41;;;;;;;4.28;1.75;;;;;;;11.21;38.67;101370.71;1775264;80;25723;-60
2022/05/18 05:05:12;;;;;;;14.40;1.30;;;;;;;11.24;38.11;101369.59;1774675;80;26353;-59
2022/05/18 05:07:39;;;;;;;6.70;2.10;;;;;;;11.26;38.06;101369.83;1776853;80;25859;-57
2022/05/18 05:10:08;;;;;;;11.08;1.42;;;;;;;11.33;38.08;101381.47;1780414;80;27455;-57
2022/05/18 05:12:35;;;;;;;10.85;1.22;;;;;;;11.34;37.80;101376.45;1780584;79;25683;-58
2022/05/18 05:15:02;;;;;;;8.10;1.30;;;;;;;11.37;38.14;101381.09;1780211;80;25697;-57
2022/05/18 05:17:29;;;;;;;5.45;1.40;;;;;;;11.41;37.82;101384.39;1780625;79;26203;-58
2022/05/18 05:19:57;;;;;;;4.50;1.40;;;;;;;11.36;37.90;101387.93;1780349;80;25837;-57
2022/05/18 05:22:25;;;;;;;7.28;1.30;;;;;;;11.39;37.35;101391.73;1780385;80;27457;-57
2022/05/18 05:24:52;;;;;;;6.83;1.15;;;;;;;11.43;37.90;101391.83;1780451;80;26087;-58
2022/05/18 05:27:19;;;;;;;5.33;1.22;;;;;;;11.43;37.60;101402.60;1780511;80;25866;-57
2022/05/18 05:29:45;;;;;;;8.70;1.15;;;;;;;11.41;37.65;101407.28;1780434;80;26100;-57
2022/05/18 05:32:12;;;;;;;7.80;0.98;;;;;;;11.41;37.22;101402.73;1768465;80;25704;-58
2022/05/18 05:34:39;;;;;;;4.08;0.95;;;;;;;11.42;37.67;101412.53;1738573;81;27648;-58
2022/05/18 05:37:06;;;;;;;6.80;0.70;;;;;;;11.41;37.24;101403.24;1785247;80;25780;-58
2022/05/18 05:39:33;;;;;;;5.83;0.70;;;;;;;11.42;37.71;101409.84;1785845;80;25472;-58
2022/05/18 05:41:59;;;;;;;8.55;0.98;;;;;;;11.46;36.97;101421.72;1785787;80;26054;-57
2022/05/18 05:44:27;;;;;;;5.50;1.00;;;;;;;11.45;36.75;101414.62;1786089;79;25910;-58
2022/05/18 05:46:53;;;;;;;7.05;0.65;;;;;;;11.42;36.77;101430.55;1758630;80;27461;-58
2022/05/18 05:49:20;;;;;;;8.03;0.80;;;;;;;11.32;37.14;101429.58;1740876;82;25648;-58
2022/05/18 05:51:47;;;;;;;3.17;0.70;;;;;;;11.31;37.14;101437.30;1740976;82;25760;-58
2022/05/18 05:54:14;;;;;;;5.37;0.68;;;;;;;11.30;36.71;101449.05;1740960;82;26760;-58
2022/05/18 05:56:42;;;;;;;8.83;0.95;;;;;;;11.26;37.29;101440.36;1740800;82;25770;-57
2022/05/18 05:59:09;;;;;;;3.22;1.07;;;;;;;11.25;37.04;101450.27;1770922;80;27452;-58
2022/05/18 06:01:35;;;;;;;10.15;1.57;;;;;;;11.22;37.70;101458.61;1780792;80;25762;-57
2022/05/18 06:04:07;;;;;;;7.70;0.60;;;;;;;11.26;37.45;101451.98;1781066;80;25734;-57
2022/05/18 06:06:31;;;;;;;16.70;1.32;;;;;;;11.30;38.28;101455.78;1780282;80;26290;-57
2022/05/18 06:08:59;;;;;;;5.83;0.90;;;;;;;11.32;38.27;101455.17;1750800;80;26002;-57
2022/05/18 06:11:27;;;;;;;7.53;1.37;;;;;;;11.38;38.38;101463.63;1776811;80;27503;-57
2022/05/18 06:13:54;;;;;;;2.83;0.70;;;;;;;11.41;38.24;101460.66;1782977;80;25786;-57
2022/05/18 06:16:21;;;;;;;8.43;0.88;;;;;;;11.45;37.92;101465.30;1782610;79;25454;-57
2022/05/18 06:18:47;;;;;;;10.00;0.80;;;;;;;11.48;38.08;101459.67;1782990;80;26079;-58
2022/05/18 06:21:16;;;;;;;14.47;0.88;;;;;;;11.50;38.39;101466.27;1782791;80;25746;-57
2022/05/18 06:23:43;;;;;;;3.70;0.75;;;;;;;11.50;37.88;101463.11;1781461;79;27454;-57
2022/05/18 06:26:10;;;;;;;8.95;0.60;;;;;;;11.52;38.11;101480.48;1774919;80;25774;-57
2022/05/18 06:28:37;;;;;;;15.00;0.62;;;;;;;11.51;38.26;101473.38;1774809;80;25814;-57
2022/05/18 06:31:05;;;;;;;2.75;0.60;;;;;;;11.54;38.53;101483.92;1774729;80;26091;-58
2022/05/18 06:33:34;;;;;;;0.80;0.50;;;;;;;11.56;37.06;101473.38;1741762;80;25535;-59
2022/05/18 06:36:02;;;;;;;6.67;1.20;;;;;;;11.59;37.08;101473.14;1735529;82;28093;-58
2022/05/18 06:38:30;;;;;;;2.17;0.65;;;;;;;11.57;37.12;101483.65;1751972;80;26592;-58
2022/05/18 06:43:44;;;;;;;3.10;0.75;;;;;;;11.62;38.04;101491.36;1782840;80;26024;-57
2022/05/18 06:46:11;;;;;;;12.78;1.00;;;;;;;11.70;38.13;101495.63;1767797;80;25766;-58
2022/05/18 06:48:40;;;;;;;4.25;0.60;;;;;;;11.75;38.02;101483.99;1732983;82;27475;-57
2022/05/18 06:51:08;;;;;;;4.37;1.10;;;;;;;11.80;38.03;101493.05;1732353;82;25530;-58
2022/05/18 06:53:35;;;;;;;3.92;0.60;;;;;;;11.89;37.57;101499.88;1764978;80;25690;-57
2022/05/18 06:56:02;;;;;;;20.32;0.93;;;;;;;11.96;38.25;101495.34;1782594;79;28159;-58
2022/05/18 06:58:29;;;;;;;5.58;0.70;;;;;;;12.08;36.85;101492.98;1782497;80;25750;-58
2022/05/18 07:00:56;;;;;;;7.53;0.78;;;;;;;12.09;37.64;101497.39;1782670;80;27513;-58
2022/05/18 07:03:23;;;;;;;4.47;1.05;;;;;;;12.14;37.31;101491.14;1782526;79;25639;-58
2022/05/18 07:05:50;;;;;;;7.60;0.98;;;;;;;12.27;37.96;101503.58;1782658;80;25678;-58
2022/05/18 07:08:18;;;;;;;3.10;0.62;;;;;;;12.34;36.57;101494.84;1779014;80;26154;-58
2022/05/18 07:10:44;;;;;;;4.33;1.15;;;;;;;12.34;36.29;101488.58;1774999;80;25706;-58
2022/05/18 07:13:16;;;;;;;4.30;0.70;;;;;;;12.40;36.53;101486.73;1745423;80;27465;-58
2022/05/18 07:15:39;;;;;;;7.15;1.10;;;;;;;12.54;36.90;101500.39;1761033;80;25712;-58
2022/05/18 07:18:06;;;;;;;9.13;0.40;;;;;;;12.64;36.96;101497.75;1774917;80;25893;-58
2022/05/18 07:20:33;;;;;;;8.98;0.75;;;;;;;12.68;36.52;101507.31;1775328;80;26876;-58
2022/05/18 07:23:00;;;;;;;3.92;0.50;;;;;;;12.86;36.91;101508.05;1774893;80;25454;-58
2022/05/18 07:25:28;;;;;;;3.35;0.70;;;;;;;13.03;36.21;101504.73;1774205;80;27376;-59
2022/05/18 07:27:54;;;;;;;2.62;0.50;;;;;;;13.06;36.09;101502.25;1771945;80;25790;-59
2022/05/18 07:30:21;;;;;;;4.20;0.50;;;;;;;13.10;35.50;101511.30;1772287;80;25847;-58
2022/05/18 07:32:48;;;;;;;2.05;0.50;;;;;;;13.22;35.03;101514.77;1750248;80;27057;-57
2022/05/18 07:35:15;;;;;;;3.83;0.50;;;;;;;13.41;34.18;101512.66;1730885;81;26021;-57
2022/05/18 07:37:42;;;;;;;3.30;0.53;;;;;;;13.51;34.24;101519.47;1730655;82;27475;-58
2022/05/18 07:40:10;;;;;;;3.85;0.68;;;;;;;13.58;34.64;101516.57;1730560;81;26240;-58
2022/05/18 07:42:38;;;;;;;11.40;0.78;;;;;;;13.63;35.07;101526.97;1755267;81;25728;-58
2022/05/18 07:45:07;;;;;;;11.80;0.88;;;;;;;13.59;34.96;101531.80;1730513;82;26106;-57
2022/05/18 07:47:34;;;;;;;12.75;1.35;;;;;;;13.54;34.39;101535.39;1730674;82;25781;-58
2022/05/18 07:50:01;;;;;;;3.85;0.65;;;;;;;13.58;34.36;101525.19;1730984;82;27429;-58
2022/05/18 07:52:28;;;;;;;5.53;0.70;;;;;;;13.72;34.25;101532.03;1730367;82;25480;-59
2022/05/18 07:54:55;;;;;;;5.58;0.75;;;;;;;13.77;34.34;101540.60;1730953;82;25559;-59
2022/05/18 07:57:22;;;;;;;4.72;0.98;;;;;;;13.77;34.06;101542.80;1730747;82;26238;-59
2022/05/18 07:59:59;;;;;;;2.02;0.95;;;;;;;13.69;33.68;101548.55;1730590;82;25755;-58
2022/05/18 08:02:29;;;;;;;7.97;0.62;;;;;;;13.61;34.28;101555.51;1737955;81;27550;-58
2022/05/18 08:04:56;;;;;;;19.00;1.10;;;;;;;13.59;34.28;101566.08;1741440;82;25750;-58
2022/05/18 08:07:23;;;;;;;1.57;0.50;;;;;;;13.59;34.13;101560.19;1741321;82;25733;-58
2022/05/18 08:15:22;;;;;;;6.42;0.65;;;;;;;13.67;34.05;101567.59;1727715;82;27513;-58
2022/05/18 08:17:49;;;;;;;8.48;0.80;;;;;;;13.85;34.38;101557.50;1727437;82;26099;-57
2022/05/18 08:20:20;;;;;;;4.40;1.50;;;;;;;13.92;33.47;101566.25;1727701;82;26646;-57
2022/05/18 08:22:48;;;;;;;5.45;0.50;;;;;;;13.90;33.81;101566.05;1727583;83;26096;-57
2022/05/18 08:25:15;;;;;;;8.10;0.68;;;;;;;14.07;33.19;101564.02;1727692;82;25492;-58
2022/05/18 08:27:45;;;;;;;15.60;0.88;;;;;;;14.35;32.93;101545.24;1727553;82;27494;-58
2022/05/18 08:30:16;;;;;;;8.48;0.70;;;;;;;14.69;33.29;101544.83;1727586;83;25792;-58
2022/05/18 08:32:43;;;;;;;3.45;0.53;;;;;;;14.83;33.29;101563.00;1737202;82;25753;-57
2022/05/18 08:35:17;;;;;;;1.55;0.60;;;;;;;14.96;32.05;101558.63;1747151;80;26175;-59
2022/05/18 08:37:46;;;;;;;6.00;0.72;;;;;;;14.93;32.25;101566.52;1746573;81;25701;-58
2022/05/18 08:40:50;;;;;;;10.98;2.10;;;;;;;15.07;32.25;101570.62;1747006;81;27586;-58
2022/05/18 08:43:31;;;;;;;10.65;1.02;;;;;;;15.10;32.12;101568.15;1729360;82;25780;-58
2022/05/18 08:46:06;;;;;;;20.45;1.92;;;;;;;15.12;32.43;101566.99;1731807;80;25925;-58
2022/05/18 08:49:05;;;;;;;2.30;0.93;;;;;;;15.21;32.03;101571.18;1746479;81;26167;-57
2022/05/18 08:51:45;;;;;;;4.08;0.90;;;;;;;15.27;31.75;101573.28;1747101;80;26010;-58
2022/05/18 08:54:47;;;;;;;7.62;0.98;;;;;;;15.39;30.79;101557.20;1746542;81;27445;-58
2022/05/18 08:57:28;;;;;;;2.12;0.53;;;;;;;15.55;31.43;101577.40;1746984;81;25727;-57
2022/05/18 09:00:05;;;;;;;3.33;0.70;;;;;;;15.77;31.29;101559.88;1747078;82;25764;-58
2022/05/18 09:02:34;;;;;;;4.17;0.62;;;;;;;15.94;31.21;101574.02;1746990;81;28208;-57
2022/05/18 09:05:15;;;;;;;4.83;0.42;;;;;;;16.06;30.97;101567.87;1746991;80;25506;-57
2022/05/18 09:07:53;;;;;;;3.30;0.60;;;;;;;16.08;30.93;101574.52;1746814;81;27481;-57
2022/05/18 09:10:32;;;;;;;6.62;0.68;;;;;;;16.23;30.78;101569.39;1761766;80;25751;-58
2022/05/18 09:12:59;;;;;;;3.92;0.60;;;;;;;16.36;29.98;101567.69;1779956;80;25686;-57
2022/05/18 09:15:37;;;;;;;5.25;0.85;;;;;;;16.09;30.10;101572.16;1780502;79;27344;-57
2022/05/18 09:18:21;;;;;;;9.28;0.55;;;;;;;16.00;29.86;101578.50;1727005;82;25769;-58
2022/05/18 09:20:56;;;;;;;2.62;0.50;;;;;;;16.21;29.56;101564.12;1780674;80;28350;-58
2022/05/18 09:23:47;;;;;;;10.90;0.60;;;;;;;16.30;29.67;101578.66;1777768;80;25675;-58
2022/05/18 09:26:45;;;;;;;4.12;0.60;;;;;;;16.64;28.64;101568.44;1779736;80;25664;-59
2022/05/18 09:29:36;;;;;;;2.08;0.50;;;;;;;17.03;28.89;101554.48;1780260;80;26210;-57
2022/05/18 09:32:39;;;;;;;4.10;0.60;;;;;;;16.94;28.22;101573.62;1780019;80;25758;-58
2022/05/18 09:35:31;;;;;;;3.33;0.60;;;;;;;17.43;28.25;101560.83;1779957;80;28304;-58
2022/05/18 09:38:10;;;;;;;9.85;0.60;;;;;;;17.81;26.82;101564.06;1779871;80;27189;-57
2022/05/18 09:40:48;;;;;;;7.00;0.80;;;;;;;17.92;26.83;101562.91;1779493;79;25744;-58
2022/05/18 09:44:00;;;;;;;9.33;0.88;;;;;;;18.19;27.28;101559.11;1722612;80;26998;-57
2022/05/18 09:46:30;;;;;;;3.92;0.45;;;;;;;18.53;26.92;101562.20;1722139;82;25504;-58
2022/05/18 09:49:38;;;;;;;4.95;1.15;;;;;;;18.15;26.37;101574.06;1733393;82;28184;-58
2022/05/18 09:52:06;;;;;;;3.90;1.47;;;;;;;17.64;26.53;101569.94;1733170;81;25659;-57
2022/05/18 09:54:37;;;;;;;2.45;0.60;;;;;;;17.09;27.74;101573.38;1733511;82;25767;-58
2022/05/18 09:57:18;;;;;;;3.22;0.65;;;;;;;17.26;28.30;101569.43;1733286;82;26086;-58
2022/05/18 09:59:56;;;;;;;1.02;0.60;;;;;;;17.64;27.92;101574.02;1733047;82;25716;-59
2022/05/18 10:08:14;;;;;;;6.25;0.55;;;;;;;17.26;28.05;101583.86;1732839;82;26006;-58
2022/05/18 10:10:42;;;;;;;6.78;0.62;;;;;;;16.90;28.54;101598.35;1734863;82;26093;-58
2022/05/18 10:13:19;;;;;;;8.68;0.75;;;;;;;16.73;28.79;101600.59;1734951;82;25713;-57
2022/05/18 10:15:49;;;;;;;2.25;0.47;;;;;;;16.55;29.32;101605.52;1734958;82;27471;-57
2022/05/18 10:18:31;;;;;;;3.98;0.50;;;;;;;16.42;29.65;101607.78;1734987;82;25708;-58
2022/05/18 10:21:15;;;;;;;7.03;0.57;;;;;;;16.24;30.21;101611.34;1734499;82;25439;-57
2022/05/18 10:23:53;;;;;;;2.87;0.62;;;;;;;16.10;29.90;101610.48;1733814;82;26122;-57
2022/05/18 10:26:39;;;;;;;7.65;0.80;;;;;;;16.03;30.11;101607.55;1735342;82;25710;-57
2022/05/18 10:29:14;;;;;;;5.40;1.10;;;;;;;15.87;30.12;101609.55;1735089;82;28182;-58
2022/05/18 10:31:46;;;;;;;8.40;0.50;;;;;;;15.83;30.67;101612.69;1733877;82;25814;-58
2022/05/18 10:34:30;;;;;;;34.08;1.42;;;;;;;15.71;30.68;101612.87;1734407;82;25725;-57
2022/05/18 10:37:01;;;;;;;6.87;0.40;;;;;;;15.65;30.84;101620.25;1733019;81;27027;-57
2022/05/18 10:39:38;;;;;;;4.67;0.50;;;;;;;15.56;30.97;101630.13;1732553;82;25702;-57
2022/05/18 10:42:26;;;;;;;5.20;0.50;;;;;;;15.42;31.48;101629.25;1734588;82;28389;-57
2022/05/18 10:44:55;;;;;;;3.87;0.62;;;;;;;15.26;31.91;101638.86;1737321;82;25630;-57
2022/05/18 10:47:30;;;;;;;1.25;0.30;;;;;;;15.22;32.30;101639.30;1735772;82;26470;-57
2022/05/18 10:50:26;;;;;;;6.10;0.45;;;;;;;15.12;32.36;101632.03;1735122;82;26193;-56
2022/05/18 10:53:16;;;;;;;3.67;0.40;;;;;;;15.11;32.95;101634.38;1735239;82;25994;-57
2022/05/18 10:56:03;;;;;;;3.00;0.57;;;;;;;15.04;32.92;101641.39;1734925;82;27662;-58
2022/05/18 10:58:41;;;;;;;2.83;0.30;;;;;;;14.90;32.78;101643.16;1734983;82;25894;-58
2022/05/18 11:01:25;;;;;;;3.65;0.30;;;;;;;14.81;32.91;101630.00;1735054;82;25757;-58
2022/05/18 11:04:18;;;;;;;1.12;0.57;;;;;;;14.73;33.35;101636.11;1733741;82;26138;-58
2022/05/18 11:06:45;;;;;;;7.20;0.40;;;;;;;14.81;33.57;101636.77;1735163;82;25721;-58
2022/05/18 11:09:23;;;;;;;3.20;0.47;;;;;;;14.84;33.74;101636.46;1734871;82;27482;-58
2022/05/18 11:12:00;;;;;;;5.70;0.37;;;;;;;14.82;33.68;101633.06;1734597;82;25798;-57
2022/05/18 11:14:38;;;;;;;1.55;0.20;;;;;;;14.83;33.82;101626.66;1735225;82;26513;-57
2022/05/18 11:17:41;;;;;;;4.28;0.50;;;;;;;14.79;33.82;101636.89;1735232;82;26896;-58
2022/05/18 11:20:40;;;;;;;4.08;0.40;;;;;;;14.92;33.86;101636.63;1723218;82;25761;-57
2022/05/18 11:23:39;;;;;;;3.67;0.55;;;;;;;14.97;33.77;101636.20;1734731;82;27500;-58
2022/05/18 11:26:26;;;;;;;8.68;0.55;;;;;;;14.86;34.01;101648.89;1735029;82;25729;-58
2022/05/18 11:28:59;;;;;;;6.60;0.57;;;;;;;14.69;34.34;101645.54;1735004;82;25729;-58
2022/05/18 11:31:51;;;;;;;12.70;1.12;;;;;;;14.62;34.64;101651.11;1734650;82;26110;-58
2022/05/18 11:34:56;;;;;;;7.92;0.82;;;;;;;14.62;34.25;101648.40;1741886;81;25830;-58
2022/05/18 11:37:40;;;;;;;9.93;0.65;;;;;;;14.61;34.37;101650.27;1745750;81;27499;-58
2022/05/18 11:40:38;;;;;;;;;;;;;;;14.64;34.40;101655.41;1691145;82;26435;-57
2022/05/18 11:43:28;;;;;;;3.40;0.62;;;;;;;14.81;34.67;101644.38;1707561;83;25783;-57
2022/05/18 11:46:09;;;;;;;8.13;0.93;;;;;;;14.85;34.34;101649.89;1712822;80;26133;-58
2022/05/18 11:49:01;;;;;;;3.83;0.42;;;;;;;14.92;34.11;101647.47;1713636;83;25800;-58
2022/05/18 11:51:54;;;;;;;6.10;0.65;;;;;;;14.86;34.31;101650.24;1728506;82;28232;-57
2022/05/18 11:54:35;;;;;;;3.77;0.30;;;;;;;14.94;34.48;101652.22;1732719;81;25994;-57
2022/05/18 11:57:30;;;;;;;1.95;0.37;;;;;;;14.99;34.35;101649.08;1732492;82;25701;-57
2022/05/18 12:00:09;;;;;;;1.25;0.55;;;;;;;15.07;34.28;101649.72;1732750;81;25648;-58
2022/05/18 12:03:25;;;;;;;2.00;0.47;;;;;;;15.24;34.14;101642.20;1732531;82;25722;-57
2022/05/18 12:06:46;;;;;;;3.65;0.90;;;;;;;15.31;33.71;101650.62;1732954;82;28282;-57
2022/05/18 12:09:33;;;;;;;2.58;0.42;;;;;;;15.33;33.75;101641.34;1732578;81;25890;-58